Kincardine, Canada
Current Conditions -  °F | °C
As of 7:00 AM on Friday 19 Dec 2014 (Local Time) from CYVV Reporting Station
Broken Clouds Broken Clouds  
Wind Chill: 21°   Ceiling: 1300
Heat Index: 21°   Visibility: 15mi
Dew Point: 18°   Wind: 3mph
Humidity: 86%   Direction: 360°N
Pressure: 30.2"   Gusts: NA
Location:  44.18°N, 81.63°W
Report Text: CYVV 191200Z 36003KT 320V030 15SM BKN013 M06/M08 A3020 RMK SC6 SUNSHINE 0.0 SLP240
Loading
Personal Weather Stations






























Interactive Weather Map New forecast layout! Learn more

10-Day Weather Forecast

Advertisements
Track Severe Weather on mobile